Chitose — JD2925 — position and weather

sailwx.info

Track history (hours):
 
Tides and Currents Weather Stations Pressure Air Temp Water Temp Dewpoint Dewpoint Depression Visibility Wind Speed Wind Dir Waves Ship Positions

Chitose

Last reported at 2016-Dec-06 09:33 UTC. Time now 2016-Dec-06 10:19 UTC.
Position N 35°26' E 139°42'.

Length 33 m; draft 3.8 m.

Type: Tug. MMSI: 431000953.

Date/timePositionNaut miles runAvg speedWind from/ knotsBaromVisibWave heightAir tempDewpointWater temp
2016-Dec-06 09:33N 35°26' E 139°42'3 3.4
2016-Dec-06 08:33N 35°28' E 139°39'1 1.3
2016-Dec-06 07:33N 35°27' E 139°39'5 5.3
2016-Dec-06 06:33N 35°30' E 139°45'0 0.4
2016-Dec-06 05:33N 35°30' E 139°45'3 3.2
2016-Dec-06 04:33N 35°27' E 139°44'4 3.6
2016-Dec-06 03:33N 35°27' E 139°39'5 4.5
2016-Dec-06 02:34N 35°28' E 139°45'0 0.4
2016-Dec-06 01:33N 35°28' E 139°45'5 4.9
2016-Dec-06 00:34N 35°27' E 139°40'1 1.4
2016-Dec-05 23:33N 35°28' E 139°41'2 2.3
2016-Dec-05 22:33N 35°29' E 139°43'1 1.5
2016-Dec-05 21:33N 35°28' E 139°42'2 2.2
2016-Dec-05 20:33N 35°27' E 139°40'0 0.0
2016-Dec-05 19:33N 35°27' E 139°40'0 0.0
2016-Dec-05 18:33N 35°27' E 139°40'0 0.0
2016-Dec-05 17:33N 35°27' E 139°40'0 0.0
2016-Dec-05 16:33N 35°27' E 139°40'0 0.0
2016-Dec-05 15:33N 35°27' E 139°40'0 0.0
2016-Dec-05 14:33N 35°27' E 139°40'0 0.0
2016-Dec-05 13:33N 35°27' E 139°40'0 0.0
2016-Dec-05 12:33N 35°27' E 139°40'0 0.0
2016-Dec-05 11:33N 35°27' E 139°40'0 0.0
2016-Dec-05 10:33N 35°27' E 139°40'0 0.0
2016-Dec-05 08:33N 35°27' E 139°40'0 0.0
2016-Dec-05 07:33N 35°27' E 139°40'0 0.0
2016-Dec-05 06:33N 35°27' E 139°40'0 0.0
2016-Dec-05 05:33N 35°27' E 139°40'2 2.1
2016-Dec-05 04:33N 35°26' E 139°42'2 2.3
2016-Dec-05 03:34N 35°28' E 139°40'1 1.3
2016-Dec-05 02:33N 35°27' E 139°39'0 0.0
2016-Dec-05 01:33N 35°27' E 139°39'0 0.0
2016-Dec-05 00:33N 35°27' E 139°39'3 2.7
2016-Dec-04 23:33N 35°27' E 139°43'3 2.6
2016-Dec-04 22:34N 35°27' E 139°40'0 0.0
2016-Dec-02 22:30N 35°27' E 139°40'2 2.4
2016-Dec-02 21:33N 35°26' E 139°42'2 2.4
2016-Dec-02 20:33N 35°27' E 139°39'0 0.0
2016-Dec-02 19:33N 35°27' E 139°39'0 0.0
2016-Dec-02 18:33N 35°27' E 139°39'0 0.0
2016-Dec-02 17:33N 35°27' E 139°39'0 0.0
2016-Dec-02 16:33N 35°27' E 139°39'1 1.4
2016-Dec-02 15:33N 35°26' E 139°41'1 1.2
2016-Dec-02 14:33N 35°27' E 139°42'0 0.0
2016-Dec-02 13:33N 35°27' E 139°42'0 0.0
2016-Dec-02 12:33N 35°27' E 139°42'0 0.0
2016-Dec-02 11:33N 35°27' E 139°42'0 0.0
2016-Dec-02 10:33N 35°27' E 139°42'1 1.0
2016-Dec-02 09:33N 35°28' E 139°42'1 0.5
2016-Dec-02 08:33N 35°27' E 139°42'2 1.6
2016-Dec-02 07:33N 35°27' E 139°41'1 0.9
2016-Dec-02 06:33N 35°27' E 139°39'0 0.0
2016-Dec-02 05:33N 35°27' E 139°39'0 0.0
2016-Dec-02 04:33N 35°27' E 139°39'2 2.0
2016-Dec-02 03:34N 35°26' E 139°42'3 3.0
2016-Dec-02 02:33N 35°23' E 139°41'4 3.7
2016-Dec-02 01:33N 35°27' E 139°40'0 0.0
2016-Dec-02 00:33N 35°27' E 139°40'0 0.0
2016-Dec-01 23:33N 35°27' E 139°40'0 0.0
2016-Dec-01 22:33N 35°27' E 139°40'0 0.0
2016-Dec-01 21:33N 35°27' E 139°40'0 0.0
2016-Dec-01 20:33N 35°27' E 139°40'0 0.0
2016-Dec-01 19:33N 35°27' E 139°40'0 0.0
2016-Dec-01 18:33N 35°27' E 139°40'0 0.0
2016-Dec-01 17:33N 35°27' E 139°40'0 0.0
2016-Dec-01 16:33N 35°27' E 139°40'0 0.0
2016-Dec-01 15:34N 35°27' E 139°40'0 0.0
2016-Dec-01 14:33N 35°27' E 139°40'0 0.0
2016-Dec-01 13:34N 35°27' E 139°40'0 0.0
2016-Dec-01 12:33N 35°27' E 139°40'0 0.0
2016-Dec-01 11:34N 35°27' E 139°40'0 0.0
2016-Dec-01 10:33N 35°27' E 139°40'0 0.0
2016-Dec-01 09:33N 35°27' E 139°40'0 0.0
2016-Dec-01 08:33N 35°27' E 139°40'0 0.0
2016-Dec-01 07:34N 35°27' E 139°40'2 1.9
2016-Dec-01 06:33N 35°27' E 139°42'2 2.0
2016-Dec-01 05:34N 35°27' E 139°40'0 0.0
2016-Dec-01 04:34N 35°27' E 139°40'0 0.0
2016-Dec-01 03:34N 35°27' E 139°40'0 0.0
2016-Dec-01 02:33N 35°27' E 139°40'0 0.0
2016-Dec-01 01:33N 35°27' E 139°40'0 0.0
2016-Dec-01 00:33N 35°27' E 139°40'3 2.7
2016-Nov-30 23:33N 35°29' E 139°42'3 2.7
2016-Nov-30 22:33N 35°27' E 139°40'0 0.0
2016-Nov-30 21:33N 35°27' E 139°40'0 0.0
2016-Nov-29 23:33N 35°27' E 139°40'6 5.8
2016-Nov-29 22:34N 35°30' E 139°46'1 1.0
2016-Nov-29 21:33N 35°29' E 139°45'3 3.3
2016-Nov-29 20:33N 35°27' E 139°42'0 0.0
2016-Nov-29 19:33N 35°27' E 139°42'0 0.0
2016-Nov-29 18:33N 35°27' E 139°42'0 0.0
2016-Nov-29 17:33N 35°27' E 139°42'0 0.0
2016-Nov-29 16:33N 35°27' E 139°42'0 0.0
2016-Nov-29 15:33N 35°27' E 139°42'0 0.0
2016-Nov-29 14:33N 35°27' E 139°42'2 1.8
2016-Nov-29 13:34N 35°26' E 139°42'1 1.2
2016-Nov-29 12:33N 35°27' E 139°41'2 1.6
2016-Nov-29 11:34N 35°27' E 139°39'0 0.0
2016-Nov-29 10:34N 35°27' E 139°39'0 0.1
2016-Nov-29 09:33N 35°27' E 139°39'1 1.5
2016-Nov-29 08:34N 35°27' E 139°41'1 1.3
2016-Nov-29 07:33N 35°27' E 139°40'0 0.0
2016-Nov-29 05:31N 35°27' E 139°40'7 6.9
2016-Nov-29 04:33N 35°31' E 139°46'2 2.3
2016-Nov-29 03:33N 35°29' E 139°46'6 5.8
2016-Nov-29 02:34N 35°27' E 139°40'0 0.2
2016-Nov-29 01:33N 35°27' E 139°40'0 0.0
2016-Nov-29 00:33N 35°27' E 139°40'0 0.0
2016-Nov-28 23:33N 35°27' E 139°40'0 0.0
2016-Nov-28 22:33N 35°27' E 139°40'0 0.0
2016-Nov-28 21:33N 35°27' E 139°40'0 0.0
2016-Nov-28 20:33N 35°27' E 139°40'0 0.0
2016-Nov-28 19:33N 35°27' E 139°40'0 0.0
2016-Nov-28 18:33N 35°27' E 139°40'0 0.0
2016-Nov-28 17:33N 35°27' E 139°40'0 0.0
2016-Nov-28 16:33N 35°27' E 139°40'0 0.0
2016-Nov-28 15:33N 35°27' E 139°40'0 0.0
2016-Nov-28 14:33N 35°27' E 139°40'0 0.0
2016-Nov-28 13:33N 35°27' E 139°40'0 0.0
2016-Nov-28 12:33N 35°27' E 139°40'0 0.0
2016-Nov-28 11:33N 35°27' E 139°40'0 0.0
2016-Nov-28 10:33N 35°27' E 139°40'0 0.0
2016-Nov-28 09:33N 35°27' E 139°40'1 1.1
2016-Nov-28 08:33N 35°27' E 139°41'1 0.7
2016-Nov-28 07:33N 35°28' E 139°41'1 0.9
2016-Nov-28 06:34N 35°28' E 139°41'1 1.5
2016-Nov-28 05:33N 35°27' E 139°40'0 0.0
2016-Nov-28 04:33N 35°27' E 139°40'0 0.0
2016-Nov-28 03:33N 35°27' E 139°40'0 0.0
2016-Nov-28 02:33N 35°27' E 139°40'0 0.0
2016-Nov-28 01:33N 35°27' E 139°40'0 0.0
2016-Nov-28 00:33N 35°27' E 139°40'0 0.0
2016-Nov-27 23:33N 35°27' E 139°40'2 1.9
2016-Nov-27 22:34N 35°28' E 139°42'1 1.2
2016-Nov-27 21:33N 35°27' E 139°41'1 0.8
2016-Nov-27 20:33N 35°27' E 139°40'0 0.0
2016-Nov-27 19:33N 35°27' E 139°40'0 0.0
2016-Nov-27 18:33N 35°27' E 139°40'0 0.0
2016-Nov-27 17:33N 35°27' E 139°40'0 0.0
2016-Nov-27 16:33N 35°27' E 139°40'0 0.0
2016-Nov-27 15:33N 35°27' E 139°40'0 0.0
2016-Nov-27 14:33N 35°27' E 139°40'0 0.0
2016-Nov-27 13:33N 35°27' E 139°40'0 0.0
2016-Nov-27 12:33N 35°27' E 139°40'0 0.0
2016-Nov-27 11:33N 35°27' E 139°40'0 0.0
2016-Nov-27 10:33N 35°27' E 139°40'0 0.0
2016-Nov-27 09:33N 35°27' E 139°40'0 0.0
2016-Nov-27 08:33N 35°27' E 139°40'0 0.0
2016-Nov-27 07:33N 35°27' E 139°40'0 0.0
2016-Nov-27 06:33N 35°27' E 139°40'0 0.0
2016-Nov-27 05:33N 35°27' E 139°40'0 0.0
2016-Nov-27 04:33N 35°27' E 139°40'0 0.0
2016-Nov-27 03:33N 35°27' E 139°40'0 0.0
2016-Nov-27 02:33N 35°27' E 139°40'0 0.0
2016-Nov-27 01:33N 35°27' E 139°40'0 0.0
2016-Nov-27 00:33N 35°27' E 139°40'0 0.0
2016-Nov-26 23:33N 35°27' E 139°40'0 0.0
2016-Nov-26 22:33N 35°27' E 139°40'0 0.0
2016-Nov-26 21:33N 35°27' E 139°40'0 0.0
2016-Nov-26 20:33N 35°27' E 139°40'0 0.0
2016-Nov-26 19:33N 35°27' E 139°40'0 0.0
2016-Nov-26 18:33N 35°27' E 139°40'0 0.0
2016-Nov-26 17:33N 35°27' E 139°40'0 0.0
2016-Nov-26 16:33N 35°27' E 139°40'0 0.0
2016-Nov-26 15:33N 35°27' E 139°40'0 0.0
2016-Nov-26 14:33N 35°27' E 139°40'0 0.0
2016-Nov-26 13:33N 35°27' E 139°40'0 0.0
2016-Nov-26 12:33N 35°27' E 139°40'0 0.0
2016-Nov-26 11:33N 35°27' E 139°40'0 0.0
2016-Nov-26 10:33N 35°27' E 139°40'  
Track history (hours):
 
Tides and Currents Weather Stations Pressure Air Temp Water Temp Dewpoint Dewpoint Depression Visibility Wind Speed Wind Dir Waves Ship Positions

Chitose

Last reported at 2016-Dec-06 09:33 UTC. Time now 2016-Dec-06 10:19 UTC.
Position N 35°26' E 139°42'.

Length 33 m; draft 3.8 m.

Type: Tug. MMSI: 431000953.

Date/timePositionNaut miles runAvg speedWind from/ knotsBaromVisibWave heightAir tempDewpointWater temp
2016-Dec-06 09:33N 35°26' E 139°42'3 3.4
2016-Dec-06 08:33N 35°28' E 139°39'1 1.3
2016-Dec-06 07:33N 35°27' E 139°39'5 5.3
2016-Dec-06 06:33N 35°30' E 139°45'0 0.4
2016-Dec-06 05:33N 35°30' E 139°45'3 3.2
2016-Dec-06 04:33N 35°27' E 139°44'4 3.6
2016-Dec-06 03:33N 35°27' E 139°39'5 4.5
2016-Dec-06 02:34N 35°28' E 139°45'0 0.4
2016-Dec-06 01:33N 35°28' E 139°45'5 4.9
2016-Dec-06 00:34N 35°27' E 139°40'1 1.4
2016-Dec-05 23:33N 35°28' E 139°41'2 2.3
2016-Dec-05 22:33N 35°29' E 139°43'1 1.5
2016-Dec-05 21:33N 35°28' E 139°42'2 2.2
2016-Dec-05 20:33N 35°27' E 139°40'0 0.0
2016-Dec-05 19:33N 35°27' E 139°40'0 0.0
2016-Dec-05 18:33N 35°27' E 139°40'0 0.0
2016-Dec-05 17:33N 35°27' E 139°40'0 0.0
2016-Dec-05 16:33N 35°27' E 139°40'0 0.0
2016-Dec-05 15:33N 35°27' E 139°40'0 0.0
2016-Dec-05 14:33N 35°27' E 139°40'0 0.0
2016-Dec-05 13:33N 35°27' E 139°40'0 0.0
2016-Dec-05 12:33N 35°27' E 139°40'0 0.0
2016-Dec-05 11:33N 35°27' E 139°40'0 0.0
2016-Dec-05 10:33N 35°27' E 139°40'0 0.0
2016-Dec-05 08:33N 35°27' E 139°40'0 0.0
2016-Dec-05 07:33N 35°27' E 139°40'0 0.0
2016-Dec-05 06:33N 35°27' E 139°40'0 0.0
2016-Dec-05 05:33N 35°27' E 139°40'2 2.1
2016-Dec-05 04:33N 35°26' E 139°42'2 2.3
2016-Dec-05 03:34N 35°28' E 139°40'1 1.3
2016-Dec-05 02:33N 35°27' E 139°39'0 0.0
2016-Dec-05 01:33N 35°27' E 139°39'0 0.0
2016-Dec-05 00:33N 35°27' E 139°39'3 2.7
2016-Dec-04 23:33N 35°27' E 139°43'3 2.6
2016-Dec-04 22:34N 35°27' E 139°40'0 0.0
2016-Dec-02 22:30N 35°27' E 139°40'2 2.4
2016-Dec-02 21:33N 35°26' E 139°42'2 2.4
2016-Dec-02 20:33N 35°27' E 139°39'0 0.0
2016-Dec-02 19:33N 35°27' E 139°39'0 0.0
2016-Dec-02 18:33N 35°27' E 139°39'0 0.0
2016-Dec-02 17:33N 35°27' E 139°39'0 0.0
2016-Dec-02 16:33N 35°27' E 139°39'1 1.4
2016-Dec-02 15:33N 35°26' E 139°41'1 1.2
2016-Dec-02 14:33N 35°27' E 139°42'0 0.0
2016-Dec-02 13:33N 35°27' E 139°42'0 0.0
2016-Dec-02 12:33N 35°27' E 139°42'0 0.0
2016-Dec-02 11:33N 35°27' E 139°42'0 0.0
2016-Dec-02 10:33N 35°27' E 139°42'1 1.0
2016-Dec-02 09:33N 35°28' E 139°42'1 0.5
2016-Dec-02 08:33N 35°27' E 139°42'2 1.6
2016-Dec-02 07:33N 35°27' E 139°41'1 0.9
2016-Dec-02 06:33N 35°27' E 139°39'0 0.0
2016-Dec-02 05:33N 35°27' E 139°39'0 0.0
2016-Dec-02 04:33N 35°27' E 139°39'2 2.0
2016-Dec-02 03:34N 35°26' E 139°42'3 3.0
2016-Dec-02 02:33N 35°23' E 139°41'4 3.7
2016-Dec-02 01:33N 35°27' E 139°40'0 0.0
2016-Dec-02 00:33N 35°27' E 139°40'0 0.0
2016-Dec-01 23:33N 35°27' E 139°40'0 0.0
2016-Dec-01 22:33N 35°27' E 139°40'0 0.0
2016-Dec-01 21:33N 35°27' E 139°40'0 0.0
2016-Dec-01 20:33N 35°27' E 139°40'0 0.0
2016-Dec-01 19:33N 35°27' E 139°40'0 0.0
2016-Dec-01 18:33N 35°27' E 139°40'0 0.0
2016-Dec-01 17:33N 35°27' E 139°40'0 0.0
2016-Dec-01 16:33N 35°27' E 139°40'0 0.0
2016-Dec-01 15:34N 35°27' E 139°40'0 0.0
2016-Dec-01 14:33N 35°27' E 139°40'0 0.0
2016-Dec-01 13:34N 35°27' E 139°40'0 0.0
2016-Dec-01 12:33N 35°27' E 139°40'0 0.0
2016-Dec-01 11:34N 35°27' E 139°40'0 0.0
2016-Dec-01 10:33N 35°27' E 139°40'0 0.0
2016-Dec-01 09:33N 35°27' E 139°40'0 0.0
2016-Dec-01 08:33N 35°27' E 139°40'0 0.0
2016-Dec-01 07:34N 35°27' E 139°40'2 1.9
2016-Dec-01 06:33N 35°27' E 139°42'2 2.0
2016-Dec-01 05:34N 35°27' E 139°40'0 0.0
2016-Dec-01 04:34N 35°27' E 139°40'0 0.0
2016-Dec-01 03:34N 35°27' E 139°40'0 0.0
2016-Dec-01 02:33N 35°27' E 139°40'0 0.0
2016-Dec-01 01:33N 35°27' E 139°40'0 0.0
2016-Dec-01 00:33N 35°27' E 139°40'3 2.7
2016-Nov-30 23:33N 35°29' E 139°42'3 2.7
2016-Nov-30 22:33N 35°27' E 139°40'0 0.0
2016-Nov-30 21:33N 35°27' E 139°40'0 0.0
2016-Nov-29 23:33N 35°27' E 139°40'6 5.8
2016-Nov-29 22:34N 35°30' E 139°46'1 1.0
2016-Nov-29 21:33N 35°29' E 139°45'3 3.3
2016-Nov-29 20:33N 35°27' E 139°42'0 0.0
2016-Nov-29 19:33N 35°27' E 139°42'0 0.0
2016-Nov-29 18:33N 35°27' E 139°42'0 0.0
2016-Nov-29 17:33N 35°27' E 139°42'0 0.0
2016-Nov-29 16:33N 35°27' E 139°42'0 0.0
2016-Nov-29 15:33N 35°27' E 139°42'0 0.0
2016-Nov-29 14:33N 35°27' E 139°42'2 1.8
2016-Nov-29 13:34N 35°26' E 139°42'1 1.2
2016-Nov-29 12:33N 35°27' E 139°41'2 1.6
2016-Nov-29 11:34N 35°27' E 139°39'0 0.0
2016-Nov-29 10:34N 35°27' E 139°39'0 0.1
2016-Nov-29 09:33N 35°27' E 139°39'1 1.5
2016-Nov-29 08:34N 35°27' E 139°41'1 1.3
2016-Nov-29 07:33N 35°27' E 139°40'0 0.0
2016-Nov-29 05:31N 35°27' E 139°40'7 6.9
2016-Nov-29 04:33N 35°31' E 139°46'2 2.3
2016-Nov-29 03:33N 35°29' E 139°46'6 5.8
2016-Nov-29 02:34N 35°27' E 139°40'0 0.2
2016-Nov-29 01:33N 35°27' E 139°40'0 0.0
2016-Nov-29 00:33N 35°27' E 139°40'0 0.0
2016-Nov-28 23:33N 35°27' E 139°40'0 0.0
2016-Nov-28 22:33N 35°27' E 139°40'0 0.0
2016-Nov-28 21:33N 35°27' E 139°40'0 0.0
2016-Nov-28 20:33N 35°27' E 139°40'0 0.0
2016-Nov-28 19:33N 35°27' E 139°40'0 0.0
2016-Nov-28 18:33N 35°27' E 139°40'0 0.0
2016-Nov-28 17:33N 35°27' E 139°40'0 0.0
2016-Nov-28 16:33N 35°27' E 139°40'0 0.0
2016-Nov-28 15:33N 35°27' E 139°40'0 0.0
2016-Nov-28 14:33N 35°27' E 139°40'0 0.0
2016-Nov-28 13:33N 35°27' E 139°40'0 0.0
2016-Nov-28 12:33N 35°27' E 139°40'0 0.0
2016-Nov-28 11:33N 35°27' E 139°40'0 0.0
2016-Nov-28 10:33N 35°27' E 139°40'0 0.0
2016-Nov-28 09:33N 35°27' E 139°40'1 1.1
2016-Nov-28 08:33N 35°27' E 139°41'1 0.7
2016-Nov-28 07:33N 35°28' E 139°41'1 0.9
2016-Nov-28 06:34N 35°28' E 139°41'1 1.5
2016-Nov-28 05:33N 35°27' E 139°40'0 0.0
2016-Nov-28 04:33N 35°27' E 139°40'0 0.0
2016-Nov-28 03:33N 35°27' E 139°40'0 0.0
2016-Nov-28 02:33N 35°27' E 139°40'0 0.0
2016-Nov-28 01:33N 35°27' E 139°40'0 0.0
2016-Nov-28 00:33N 35°27' E 139°40'0 0.0
2016-Nov-27 23:33N 35°27' E 139°40'2 1.9
2016-Nov-27 22:34N 35°28' E 139°42'1 1.2
2016-Nov-27 21:33N 35°27' E 139°41'1 0.8
2016-Nov-27 20:33N 35°27' E 139°40'0 0.0
2016-Nov-27 19:33N 35°27' E 139°40'0 0.0
2016-Nov-27 18:33N 35°27' E 139°40'0 0.0
2016-Nov-27 17:33N 35°27' E 139°40'0 0.0
2016-Nov-27 16:33N 35°27' E 139°40'0 0.0
2016-Nov-27 15:33N 35°27' E 139°40'0 0.0
2016-Nov-27 14:33N 35°27' E 139°40'0 0.0
2016-Nov-27 13:33N 35°27' E 139°40'0 0.0
2016-Nov-27 12:33N 35°27' E 139°40'0 0.0
2016-Nov-27 11:33N 35°27' E 139°40'0 0.0
2016-Nov-27 10:33N 35°27' E 139°40'0 0.0
2016-Nov-27 09:33N 35°27' E 139°40'0 0.0
2016-Nov-27 08:33N 35°27' E 139°40'0 0.0
2016-Nov-27 07:33N 35°27' E 139°40'0 0.0
2016-Nov-27 06:33N 35°27' E 139°40'0 0.0
2016-Nov-27 05:33N 35°27' E 139°40'0 0.0
2016-Nov-27 04:33N 35°27' E 139°40'0 0.0
2016-Nov-27 03:33N 35°27' E 139°40'0 0.0
2016-Nov-27 02:33N 35°27' E 139°40'0 0.0
2016-Nov-27 01:33N 35°27' E 139°40'0 0.0
2016-Nov-27 00:33N 35°27' E 139°40'0 0.0
2016-Nov-26 23:33N 35°27' E 139°40'0 0.0
2016-Nov-26 22:33N 35°27' E 139°40'0 0.0
2016-Nov-26 21:33N 35°27' E 139°40'0 0.0
2016-Nov-26 20:33N 35°27' E 139°40'0 0.0
2016-Nov-26 19:33N 35°27' E 139°40'0 0.0
2016-Nov-26 18:33N 35°27' E 139°40'0 0.0
2016-Nov-26 17:33N 35°27' E 139°40'0 0.0
2016-Nov-26 16:33N 35°27' E 139°40'0 0.0
2016-Nov-26 15:33N 35°27' E 139°40'0 0.0
2016-Nov-26 14:33N 35°27' E 139°40'0 0.0
2016-Nov-26 13:33N 35°27' E 139°40'0 0.0
2016-Nov-26 12:33N 35°27' E 139°40'0 0.0
2016-Nov-26 11:33N 35°27' E 139°40'0 0.0
2016-Nov-26 10:33N 35°27' E 139°40'  

Dump ship's entire track history